Time;durP1;ratioP1;P1;durP2;ratioP2;P2;SDS_P1;SDS_P2;PMS_P1;PMS_P2;Temp;Humidity;BMP_temperature;BMP_pressure;BME280_temperature;BME280_humidity;BME280_pressure;Samples;Min_cycle;Max_cycle;Signal;HPM_P1;HPM_P2
2021/06/12 00:05:30;;;;;;;11.97;7.73;;;;;;;;;;5036710;28;20434;-57
2021/06/12 00:07:59;;;;;;;9.70;7.03;;;;;;;;;;5036812;28;20442;-57
2021/06/12 00:10:40;;;;;;;12.10;7.83;;;;;;;;;;5053092;28;20553;-52
2021/06/12 00:13:08;;;;;;;12.20;7.77;;;;;;;;;;5050148;28;20515;-59
2021/06/12 00:15:36;;;;;;;9.57;6.70;;;;;;;;;;5056849;28;20493;-58
2021/06/12 00:18:08;;;;;;;12.50;8.47;;;;;;;;;;5056649;28;20457;-56
2021/06/12 00:20:37;;;;;;;13.33;7.60;;;;;;;;;;5056684;28;20477;-53
2021/06/12 00:23:04;;;;;;;9.70;6.20;;;;;;;;;;5056235;28;20446;-54
2021/06/12 00:25:34;;;;;;;14.37;8.80;;;;;;;;;;5056905;28;20561;-58
2021/06/12 00:28:01;;;;;;;13.70;7.90;;;;;;;;;;5056606;28;20458;-60
2021/06/12 00:30:29;;;;;;;11.93;7.50;;;;;;;;;;5056254;28;20469;-58
2021/06/12 00:32:56;;;;;;;9.67;6.80;;;;;;;;;;5056345;28;20476;-59
2021/06/12 00:35:23;;;;;;;12.50;7.57;;;;;;;;;;5055732;28;20485;-57
2021/06/12 00:38:09;;;;;;;11.40;7.10;;;;;;;;;;5056724;28;20438;-60
2021/06/12 00:40:35;;;;;;;9.47;6.13;;;;;;;;;;5055673;28;20461;-56
2021/06/12 00:43:02;;;;;;;12.90;7.87;;;;;;;;;;5056172;28;20553;-60
2021/06/12 00:45:58;;;;;;;11.80;7.80;;;;;;;;;;5055014;28;20461;-52
2021/06/12 00:48:27;;;;;;;10.80;7.60;;;;;;;;;;5051663;28;20536;-58
2021/06/12 00:50:54;;;;;;;11.40;7.80;;;;;;;;;;5055862;28;20541;-58
2021/06/12 00:53:37;;;;;;;10.17;7.27;;;;;;;;;;5055285;28;20492;-54
2021/06/12 00:56:05;;;;;;;10.83;7.87;;;;;;;;;;5049869;28;20501;-58
2021/06/12 00:58:33;;;;;;;10.40;7.50;;;;;;;;;;5056424;28;20461;-59
2021/06/12 01:01:16;;;;;;;13.07;9.43;;;;;;;;;;5056444;28;20482;-55
2021/06/12 01:03:45;;;;;;;9.80;7.77;;;;;;;;;;5036408;28;20494;-59
2021/06/12 01:06:12;;;;;;;10.43;8.07;;;;;;;;;;5052115;28;20415;-60
2021/06/12 01:11:47;;;;;;;14.50;9.87;;;;;;;;;;5055648;28;20417;-57
2021/06/12 01:14:15;;;;;;;15.73;9.00;;;;;;;;;;5050683;28;20490;-54
2021/06/12 01:17:01;;;;;;;12.23;8.03;;;;;;;;;;5035808;28;20494;-53
2021/06/12 01:19:45;;;;;;;14.20;9.30;;;;;;;;;;5036146;28;20443;-59
2021/06/12 01:22:14;;;;;;;16.53;9.90;;;;;;;;;;5050937;28;20441;-52
2021/06/12 01:24:51;;;;;;;13.13;9.77;;;;;;;;;;5055692;28;20517;-57
2021/06/12 01:27:33;;;;;;;13.93;9.33;;;;;;;;;;5055816;28;20443;-59
2021/06/12 01:30:13;;;;;;;15.03;9.30;;;;;;;;;;5054264;28;20464;-59
2021/06/12 01:32:40;;;;;;;15.13;8.73;;;;;;;;;;5055501;28;20462;-56
2021/06/12 01:35:09;;;;;;;14.03;8.70;;;;;;;;;;5055262;28;20490;-57
2021/06/12 01:38:00;;;;;;;11.60;8.23;;;;;;;;;;5055635;28;20438;-59
2021/06/12 01:40:32;;;;;;;15.70;11.33;;;;;;;;;;5054985;28;20466;-59
2021/06/12 01:42:59;;;;;;;22.53;16.57;;;;;;;;;;5055130;28;20438;-57
2021/06/12 01:48:32;;;;;;;13.47;9.80;;;;;;;;;;5043313;28;20456;-60
2021/06/12 01:51:00;;;;;;;15.43;9.20;;;;;;;;;;5055373;28;20466;-54
2021/06/12 01:53:31;;;;;;;15.40;10.17;;;;;;;;;;5038152;28;20473;-57
2021/06/12 01:56:00;;;;;;;16.00;9.97;;;;;;;;;;5054754;28;20907;-57
2021/06/12 01:58:39;;;;;;;16.83;9.80;;;;;;;;;;5055257;28;20454;-50
2021/06/12 02:01:06;;;;;;;16.27;11.00;;;;;;;;;;5055455;28;20457;-57
2021/06/12 02:03:35;;;;;;;15.27;10.60;;;;;;;;;;5055622;28;20452;-56
2021/06/12 02:06:11;;;;;;;15.10;10.70;;;;;;;;;;5058188;28;20484;-54
2021/06/12 02:08:40;;;;;;;13.97;9.80;;;;;;;;;;5059482;28;20510;-57
2021/06/12 02:11:09;;;;;;;15.73;9.87;;;;;;;;;;5058890;28;20449;-61
2021/06/12 02:13:38;;;;;;;15.53;10.10;;;;;;;;;;5058992;28;20457;-56
2021/06/12 02:16:06;;;;;;;16.80;10.67;;;;;;;;;;5058913;28;20549;-56
2021/06/12 02:18:33;;;;;;;14.57;10.03;;;;;;;;;;5059137;28;20509;-57
2021/06/12 02:21:24;;;;;;;13.60;9.43;;;;;;;;;;5039130;28;20474;-57
2021/06/12 02:23:53;;;;;;;18.03;9.53;;;;;;;;;;5049898;28;20482;-56
2021/06/12 02:26:20;;;;;;;13.47;8.67;;;;;;;;;;5059164;28;20556;-58
2021/06/12 02:28:58;;;;;;;13.17;8.93;;;;;;;;;;5058752;28;20461;-60
2021/06/12 02:31:27;;;;;;;13.90;8.90;;;;;;;;;;5059158;28;20450;-56
2021/06/12 02:33:54;;;;;;;14.63;10.60;;;;;;;;;;5059063;28;20458;-56
2021/06/12 02:36:27;;;;;;;15.60;10.43;;;;;;;;;;5058406;28;20493;-59
2021/06/12 02:38:56;;;;;;;17.33;10.90;;;;;;;;;;5058790;28;20472;-57
2021/06/12 02:41:25;;;;;;;14.80;9.67;;;;;;;;;;5058900;28;20466;-58
2021/06/12 02:43:53;;;;;;;16.47;11.03;;;;;;;;;;5058742;28;20462;-60
2021/06/12 02:46:28;;;;;;;16.93;11.20;;;;;;;;;;5058606;28;20536;-61
2021/06/12 02:48:58;;;;;;;20.70;13.17;;;;;;;;;;5058857;28;20449;-57
2021/06/12 02:51:49;;;;;;;15.20;9.77;;;;;;;;;;5058483;28;20477;-53
2021/06/12 02:54:21;;;;;;;19.37;10.73;;;;;;;;;;5058315;28;20505;-57
2021/06/12 02:56:48;;;;;;;17.57;11.37;;;;;;;;;;5058369;28;20493;-58
2021/06/12 02:59:18;;;;;;;15.93;11.70;;;;;;;;;;5058278;28;20461;-59
2021/06/12 03:01:51;;;;;;;22.93;12.37;;;;;;;;;;5058407;28;20465;-60
2021/06/12 03:04:19;;;;;;;21.90;11.00;;;;;;;;;;5057900;28;20445;-57
2021/06/12 03:06:47;;;;;;;22.77;12.30;;;;;;;;;;5058483;28;20529;-61
2021/06/12 03:09:16;;;;;;;24.17;12.73;;;;;;;;;;5058159;28;20585;-57
2021/06/12 03:11:55;;;;;;;19.50;11.77;;;;;;;;;;5058007;28;20494;-54
2021/06/12 03:14:23;;;;;;;19.43;12.77;;;;;;;;;;5039601;28;20462;-58
2021/06/12 03:16:51;;;;;;;21.77;14.80;;;;;;;;;;5037709;28;20488;-57
2021/06/12 03:19:18;;;;;;;18.80;12.30;;;;;;;;;;5056962;28;20469;-58
2021/06/12 03:21:45;;;;;;;20.23;13.57;;;;;;;;;;5057838;28;20427;-56
2021/06/12 03:24:12;;;;;;;19.27;12.93;;;;;;;;;;5057422;28;20478;-54
2021/06/12 03:26:42;;;;;;;18.30;12.90;;;;;;;;;;5057202;28;20458;-58
2021/06/12 03:29:11;;;;;;;23.10;13.37;;;;;;;;;;5057313;28;20532;-55
2021/06/12 03:31:37;;;;;;;18.60;12.80;;;;;;;;;;5057497;28;20485;-58
2021/06/12 03:34:17;;;;;;;19.00;13.17;;;;;;;;;;5057101;28;20466;-59
2021/06/12 03:36:44;;;;;;;21.60;13.30;;;;;;;;;;5057050;28;20480;-55
2021/06/12 03:39:10;;;;;;;25.50;13.63;;;;;;;;;;5056856;28;20457;-57
2021/06/12 03:41:45;;;;;;;23.07;14.13;;;;;;;;;;5056825;28;20450;-58
2021/06/12 03:44:15;;;;;;;20.20;12.57;;;;;;;;;;5056891;28;20513;-54
2021/06/12 03:46:42;;;;;;;30.90;14.83;;;;;;;;;;5051831;28;20459;-54
2021/06/12 03:49:28;;;;;;;18.27;13.80;;;;;;;;;;5042365;28;20449;-61
2021/06/12 03:51:55;;;;;;;21.60;14.17;;;;;;;;;;5057599;28;20480;-59
2021/06/12 03:54:23;;;;;;;28.00;17.00;;;;;;;;;;5054301;28;20458;-54
2021/06/12 03:57:08;;;;;;;23.97;16.10;;;;;;;;;;5046596;28;20490;-59
2021/06/12 03:59:36;;;;;;;18.60;12.27;;;;;;;;;;5037212;28;20455;-57
2021/06/12 04:02:03;;;;;;;21.57;12.83;;;;;;;;;;5036793;28;20446;-60
2021/06/12 04:04:34;;;;;;;20.90;14.20;;;;;;;;;;5038131;28;20499;-61
2021/06/12 04:07:01;;;;;;;23.30;13.30;;;;;;;;;;5056804;28;20414;-52
2021/06/12 04:09:35;;;;;;;23.53;13.80;;;;;;;;;;5056756;28;20454;-58
2021/06/12 04:12:02;;;;;;;17.03;12.40;;;;;;;;;;5057046;28;20465;-61
2021/06/12 04:14:29;;;;;;;22.00;12.33;;;;;;;;;;5056388;28;20492;-61
2021/06/12 04:17:00;;;;;;;20.47;12.80;;;;;;;;;;5056010;28;20482;-56
2021/06/12 04:19:27;;;;;;;27.43;13.13;;;;;;;;;;5056360;28;20549;-58
2021/06/12 04:22:12;;;;;;;22.63;13.17;;;;;;;;;;5041656;28;20457;-58
2021/06/12 04:24:39;;;;;;;21.17;12.37;;;;;;;;;;5036191;28;20502;-59
2021/06/12 04:27:07;;;;;;;21.47;11.70;;;;;;;;;;5050885;28;20532;-58
2021/06/12 04:29:33;;;;;;;18.20;12.30;;;;;;;;;;5056138;28;20457;-55
2021/06/12 04:32:02;;;;;;;18.57;13.53;;;;;;;;;;5045999;28;20474;-62
2021/06/12 04:34:29;;;;;;;20.10;12.27;;;;;;;;;;5036605;28;20435;-60
2021/06/12 04:37:23;;;;;;;18.70;11.80;;;;;;;;;;5039937;28;20481;-62
2021/06/12 04:39:50;;;;;;;20.63;12.30;;;;;;;;;;5055217;28;20461;-56
2021/06/12 04:42:17;;;;;;;18.70;13.10;;;;;;;;;;5055655;28;20458;-59
2021/06/12 04:44:57;;;;;;;20.43;13.03;;;;;;;;;;5056116;28;20505;-53
2021/06/12 04:47:27;;;;;;;18.00;12.30;;;;;;;;;;5055649;28;20504;-51
2021/06/12 04:49:54;;;;;;;20.97;13.43;;;;;;;;;;5055502;28;20471;-67
2021/06/12 04:52:35;;;;;;;21.03;12.47;;;;;;;;;;5055976;28;20442;-58
2021/06/12 04:55:01;;;;;;;23.07;13.77;;;;;;;;;;5055682;28;20462;-58
2021/06/12 04:57:28;;;;;;;18.63;12.77;;;;;;;;;;5055891;28;20465;-58
2021/06/12 05:00:01;;;;;;;21.27;13.17;;;;;;;;;;5056118;28;20458;-59
2021/06/12 05:02:29;;;;;;;29.73;14.17;;;;;;;;;;5038159;28;20462;-58
2021/06/12 05:04:56;;;;;;;21.50;14.37;;;;;;;;;;5055648;28;20472;-58
2021/06/12 05:07:33;;;;;;;18.50;12.70;;;;;;;;;;5055412;28;20528;-59
2021/06/12 05:10:00;;;;;;;19.60;13.30;;;;;;;;;;5055290;28;20465;-60
2021/06/12 05:12:27;;;;;;;18.87;13.10;;;;;;;;;;5052354;28;20496;-59
2021/06/12 05:15:10;;;;;;;20.70;13.40;;;;;;;;;;5055132;28;20525;-60
2021/06/12 05:17:41;;;;;;;18.73;11.73;;;;;;;;;;5055404;28;20485;-61
2021/06/12 05:20:08;;;;;;;15.27;9.97;;;;;;;;;;5055226;28;20478;-56
2021/06/12 05:22:38;;;;;;;21.27;10.17;;;;;;;;;;5054264;28;21183;-57
2021/06/12 05:25:06;;;;;;;23.80;10.17;;;;;;;;;;5056098;28;20433;-59
2021/06/12 05:27:32;;;;;;;12.00;9.20;;;;;;;;;;5055320;28;20458;-61
2021/06/12 05:30:05;;;;;;;11.70;8.37;;;;;;;;;;5055243;28;20496;-63
2021/06/12 05:32:32;;;;;;;11.87;8.17;;;;;;;;;;5035230;28;20522;-57
2021/06/12 05:35:01;;;;;;;14.90;8.97;;;;;;;;;;5040827;28;20454;-59
2021/06/12 05:37:32;;;;;;;12.97;8.13;;;;;;;;;;5055448;28;20445;-58
2021/06/12 05:40:00;;;;;;;17.40;7.93;;;;;;;;;;5058194;28;20461;-53
2021/06/12 05:42:28;;;;;;;10.43;7.33;;;;;;;;;;5059296;28;20501;-62
2021/06/12 05:45:26;;;;;;;15.00;7.90;;;;;;;;;;5059499;28;20512;-62
2021/06/12 05:47:53;;;;;;;13.83;7.60;;;;;;;;;;5058023;28;20457;-57
2021/06/12 05:50:21;;;;;;;9.67;5.90;;;;;;;;;;5058858;28;20496;-58
2021/06/12 05:53:00;;;;;;;10.60;6.40;;;;;;;;;;5045928;28;20529;-60
2021/06/12 05:55:27;;;;;;;9.17;6.60;;;;;;;;;;5058871;28;20489;-60
2021/06/12 05:57:54;;;;;;;6.50;4.40;;;;;;;;;;5058462;28;20446;-56
2021/06/12 06:00:24;;;;;;;7.93;4.70;;;;;;;;;;5057774;28;20476;-57
2021/06/12 06:02:51;;;;;;;7.47;5.47;;;;;;;;;;5058480;28;20448;-63
2021/06/12 06:05:18;;;;;;;13.03;5.63;;;;;;;;;;5057972;28;20430;-61
2021/06/12 06:08:04;;;;;;;10.80;6.50;;;;;;;;;;5057989;28;20465;-60
2021/06/12 06:10:32;;;;;;;8.90;5.80;;;;;;;;;;5037952;28;20454;-60
2021/06/12 06:13:01;;;;;;;7.50;5.00;;;;;;;;;;5044096;28;20450;-65
2021/06/12 06:15:35;;;;;;;6.70;3.97;;;;;;;;;;5058421;28;20581;-59
2021/06/12 06:18:02;;;;;;;8.03;4.50;;;;;;;;;;5057775;28;20496;-63
2021/06/12 06:20:29;;;;;;;8.70;4.63;;;;;;;;;;5058139;28;20450;-61
2021/06/12 06:23:00;;;;;;;7.90;4.40;;;;;;;;;;5057102;28;20473;-61
2021/06/12 06:28:16;;;;;;;6.53;4.40;;;;;;;;;;5037364;28;20445;-61
2021/06/12 06:30:43;;;;;;;5.83;3.27;;;;;;;;;;5037860;28;20453;-62
2021/06/12 06:33:10;;;;;;;7.63;3.63;;;;;;;;;;5037993;28;20611;-57
2021/06/12 06:35:38;;;;;;;8.87;3.40;;;;;;;;;;5037367;28;20526;-62
2021/06/12 06:38:05;;;;;;;6.00;3.83;;;;;;;;;;5037932;28;20525;-61
2021/06/12 06:40:32;;;;;;;8.37;3.40;;;;;;;;;;5036734;28;20455;-61
2021/06/12 06:46:29;;;;;;;9.20;4.10;;;;;;;;;;4968164;29;20441;-57
2021/06/12 06:48:59;;;;;;;4.83;3.00;;;;;;;;;;5036324;28;20490;-60
2021/06/12 06:51:30;;;;;;;8.30;3.10;;;;;;;;;;5036089;28;20523;-62
2021/06/12 06:53:59;;;;;;;5.53;3.40;;;;;;;;;;5029491;28;20487;-64
2021/06/12 06:56:27;;;;;;;5.70;3.00;;;;;;;;;;5036744;28;20491;-62
2021/06/12 07:04:56;;;;;;;7.97;3.27;;;;;;;;;;5034227;28;20450;-61
2021/06/12 07:07:37;;;;;;;6.57;3.43;;;;;;;;;;5033333;28;20469;-61
2021/06/12 07:10:20;;;;;;;6.57;3.10;;;;;;;;;;5030181;28;20454;-63
2021/06/12 07:12:59;;;;;;;5.00;2.70;;;;;;;;;;5036385;28;20435;-59
2021/06/12 07:15:26;;;;;;;10.97;3.30;;;;;;;;;;5035010;28;20486;-57
2021/06/12 07:17:53;;;;;;;10.13;4.63;;;;;;;;;;5035775;28;20494;-60
2021/06/12 07:20:26;;;;;;;7.30;4.30;;;;;;;;;;5035610;28;20446;-60
2021/06/12 07:22:55;;;;;;;8.60;4.70;;;;;;;;;;5034620;28;20455;-58
2021/06/12 07:25:22;;;;;;;7.13;4.20;;;;;;;;;;5053501;28;20793;-59
2021/06/12 07:27:51;;;;;;;8.10;4.60;;;;;;;;;;5048975;28;20473;-60
2021/06/12 07:30:19;;;;;;;9.07;4.53;;;;;;;;;;5035256;28;20463;-62
2021/06/12 07:32:45;;;;;;;6.10;5.13;;;;;;;;;;5054700;28;20485;-61
2021/06/12 07:35:23;;;;;;;7.77;4.73;;;;;;;;;;5054547;28;20488;-56
2021/06/12 07:37:50;;;;;;;17.33;5.27;;;;;;;;;;5038888;28;20462;-59
2021/06/12 07:40:18;;;;;;;7.33;4.00;;;;;;;;;;5046511;28;20498;-61
2021/06/12 07:43:05;;;;;;;6.60;4.43;;;;;;;;;;5035415;28;20478;-51
2021/06/12 07:45:35;;;;;;;8.00;5.70;;;;;;;;;;5050899;28;20465;-61
2021/06/12 07:48:18;;;;;;;8.50;6.83;;;;;;;;;;5049626;28;20461;-60
2021/06/12 07:50:52;;;;;;;11.53;6.20;;;;;;;;;;5046658;28;20611;-60
2021/06/12 07:53:20;;;;;;;9.23;6.70;;;;;;;;;;5052122;28;20472;-58
2021/06/12 07:55:48;;;;;;;7.80;6.80;;;;;;;;;;5050931;28;20499;-60
2021/06/12 07:58:20;;;;;;;10.73;8.53;;;;;;;;;;5053093;28;20461;-58
2021/06/12 08:00:47;;;;;;;13.50;9.13;;;;;;;;;;5052401;28;20478;-56
2021/06/12 08:03:32;;;;;;;11.83;9.80;;;;;;;;;;5050631;28;20470;-58
2021/06/12 08:05:59;;;;;;;12.57;11.10;;;;;;;;;;5052427;28;20434;-60
2021/06/12 08:08:25;;;;;;;13.07;11.70;;;;;;;;;;5053640;28;20449;-62
2021/06/12 08:10:54;;;;;;;13.73;12.33;;;;;;;;;;5053186;28;20453;-52
2021/06/12 08:13:27;;;;;;;15.10;12.37;;;;;;;;;;5054206;28;20458;-60
2021/06/12 08:15:54;;;;;;;12.30;11.17;;;;;;;;;;5053022;28;20494;-59
2021/06/12 08:18:21;;;;;;;15.27;12.37;;;;;;;;;;5054393;28;20459;-57
2021/06/12 08:20:49;;;;;;;15.07;13.47;;;;;;;;;;5039959;28;20442;-57
2021/06/12 08:23:20;;;;;;;16.30;13.97;;;;;;;;;;5053794;28;20446;-62
2021/06/12 08:25:47;;;;;;;13.67;12.13;;;;;;;;;;5054001;28;20442;-58
2021/06/12 08:28:15;;;;;;;16.80;12.10;;;;;;;;;;5053578;28;20466;-62
2021/06/12 08:30:58;;;;;;;16.30;12.63;;;;;;;;;;5053375;28;20461;-59
2021/06/12 08:33:26;;;;;;;14.83;13.33;;;;;;;;;;5043525;28;20458;-61
2021/06/12 08:35:53;;;;;;;13.73;10.57;;;;;;;;;;5053201;28;20488;-58
2021/06/12 08:38:21;;;;;;;13.13;9.97;;;;;;;;;;5053674;28;20433;-58
2021/06/12 08:40:49;;;;;;;14.03;10.80;;;;;;;;;;5054329;28;20442;-60
2021/06/12 08:43:23;;;;;;;12.33;9.27;;;;;;;;;;5054144;28;20468;-59
2021/06/12 08:46:02;;;;;;;13.90;11.47;;;;;;;;;;5048732;28;20445;-61
2021/06/12 08:48:29;;;;;;;13.80;10.00;;;;;;;;;;5033941;28;20466;-52
2021/06/12 08:50:57;;;;;;;14.00;10.00;;;;;;;;;;5043269;28;20473;-58
2021/06/12 08:53:36;;;;;;;15.57;10.30;;;;;;;;;;5054596;28;20438;-56
2021/06/12 08:56:04;;;;;;;15.00;9.60;;;;;;;;;;5051816;28;20490;-59
2021/06/12 08:58:32;;;;;;;11.00;9.50;;;;;;;;;;5053348;28;20469;-58
2021/06/12 09:04:03;;;;;;;11.37;10.17;;;;;;;;;;5049958;28;20430;-60
2021/06/12 09:06:34;;;;;;;14.60;10.10;;;;;;;;;;5050858;28;20438;-62
2021/06/12 09:09:03;;;;;;;15.20;10.80;;;;;;;;;;5052553;28;20442;-62
2021/06/12 09:11:33;;;;;;;11.73;10.10;;;;;;;;;;5042173;28;20454;-61
2021/06/12 09:14:02;;;;;;;13.03;11.60;;;;;;;;;;5052637;28;20454;-61
2021/06/12 09:16:42;;;;;;;12.40;10.97;;;;;;;;;;5046748;28;20462;-58
2021/06/12 09:19:10;;;;;;;11.63;10.10;;;;;;;;;;5050289;28;20458;-61
2021/06/12 09:21:40;;;;;;;13.67;11.70;;;;;;;;;;5052744;28;20450;-61
2021/06/12 09:24:08;;;;;;;12.47;10.43;;;;;;;;;;5044206;28;20485;-58
2021/06/12 09:26:43;;;;;;;13.90;12.27;;;;;;;;;;5052164;28;20452;-55
2021/06/12 09:29:18;;;;;;;13.83;11.80;;;;;;;;;;5047520;28;20461;-60
2021/06/12 09:32:23;;;;;;;14.03;12.53;;;;;;;;;;5025543;28;20481;-60
2021/06/12 09:34:52;;;;;;;13.00;11.70;;;;;;;;;;5031253;28;550156;-60
2021/06/12 09:37:23;;;;;;;12.77;11.00;;;;;;;;;;5054689;28;20485;-53
2021/06/12 09:39:59;;;;;;;13.73;12.10;;;;;;;;;;5053731;28;20466;-56
2021/06/12 09:42:40;;;;;;;18.00;14.13;;;;;;;;;;5053249;28;20436;-60
2021/06/12 09:45:10;;;;;;;17.67;14.60;;;;;;;;;;5053949;28;20453;-58
2021/06/12 09:48:11;;;;;;;16.40;13.37;;;;;;;;;;5053608;28;20526;-57
2021/06/12 09:50:38;;;;;;;12.07;10.80;;;;;;;;;;4993877;28;20448;-60
2021/06/12 09:53:13;;;;;;;15.27;12.40;;;;;;;;;;4993906;28;20448;-63
2021/06/12 09:55:40;;;;;;;16.33;11.97;;;;;;;;;;5024906;28;20504;-51
2021/06/12 09:58:09;;;;;;;12.73;9.97;;;;;;;;;;5053934;28;20458;-57
2021/06/12 10:00:39;;;;;;;11.10;9.20;;;;;;;;;;5053696;28;20498;-61
2021/06/12 10:03:17;;;;;;;10.00;8.27;;;;;;;;;;5053307;28;20453;-56
2021/06/12 10:06:08;;;;;;;10.63;8.70;;;;;;;;;;5034101;28;20462;-61
2021/06/12 10:08:35;;;;;;;10.07;8.23;;;;;;;;;;5053058;28;20450;-62
2021/06/12 10:11:09;;;;;;;13.50;7.57;;;;;;;;;;5053461;28;20441;-60
2021/06/12 10:13:49;;;;;;;9.50;8.17;;;;;;;;;;5053359;28;20449;-62
2021/06/12 10:16:18;;;;;;;9.83;8.13;;;;;;;;;;5045982;28;20966;-57
2021/06/12 10:18:46;;;;;;;10.87;8.03;;;;;;;;;;5052855;28;20488;-59
2021/06/12 10:21:13;;;;;;;11.77;8.50;;;;;;;;;;5052942;28;20438;-62
2021/06/12 10:23:46;;;;;;;11.87;8.00;;;;;;;;;;5052563;28;20456;-59
2021/06/12 10:26:14;;;;;;;11.17;6.80;;;;;;;;;;5054356;28;20470;-50
2021/06/12 10:28:45;;;;;;;8.27;6.60;;;;;;;;;;5057012;28;20457;-59
2021/06/12 10:31:30;;;;;;;9.33;8.00;;;;;;;;;;5057302;28;20503;-60
2021/06/12 10:33:58;;;;;;;10.67;7.53;;;;;;;;;;5055044;28;20512;-60
2021/06/12 10:36:26;;;;;;;9.50;7.20;;;;;;;;;;5056427;28;20497;-60
2021/06/12 10:38:54;;;;;;;12.17;8.20;;;;;;;;;;5055666;28;20501;-58
2021/06/12 10:41:22;;;;;;;9.60;7.83;;;;;;;;;;5055920;28;21024;-63
2021/06/12 10:44:07;;;;;;;9.60;7.43;;;;;;;;;;5055751;28;20429;-56
2021/06/12 10:46:37;;;;;;;14.33;8.33;;;;;;;;;;5055457;28;20524;-58
2021/06/12 10:49:04;;;;;;;15.13;9.67;;;;;;;;;;5055950;28;20482;-58
2021/06/12 10:51:44;;;;;;;10.87;8.60;;;;;;;;;;5055649;28;20453;-53
2021/06/12 10:54:21;;;;;;;10.70;9.13;;;;;;;;;;5054604;28;20523;-59
2021/06/12 10:57:08;;;;;;;11.60;9.10;;;;;;;;;;5054899;28;20470;-59
2021/06/12 10:59:47;;;;;;;11.83;9.90;;;;;;;;;;5055011;28;20489;-57
2021/06/12 11:02:26;;;;;;;14.80;10.90;;;;;;;;;;5054769;28;20441;-59
2021/06/12 11:04:56;;;;;;;15.43;9.30;;;;;;;;;;5055356;28;20445;-60
2021/06/12 11:07:36;;;;;;;11.03;8.83;;;;;;;;;;5055742;28;20458;-58
2021/06/12 11:10:24;;;;;;;12.70;10.50;;;;;;;;;;5054615;28;20476;-57
2021/06/12 11:16:15;;;;;;;12.30;9.10;;;;;;;;;;5048499;28;20465;-57
2021/06/12 11:19:04;;;;;;;12.60;10.90;;;;;;;;;;5035031;28;20458;-56
2021/06/12 11:21:36;;;;;;;16.60;10.60;;;;;;;;;;5034550;28;20463;-61
2021/06/12 11:24:03;;;;;;;16.80;11.10;;;;;;;;;;5052213;28;20937;-62
2021/06/12 11:26:50;;;;;;;14.57;11.17;;;;;;;;;;5053511;28;20468;-62
2021/06/12 11:29:19;;;;;;;14.97;10.53;;;;;;;;;;5052268;28;20465;-63
2021/06/12 11:31:46;;;;;;;13.30;11.50;;;;;;;;;;5051388;28;20789;-59
2021/06/12 11:34:26;;;;;;;13.13;10.10;;;;;;;;;;5051897;28;20498;-60
2021/06/12 11:37:08;;;;;;;15.17;11.37;;;;;;;;;;5044027;28;20490;-62
2021/06/12 11:39:45;;;;;;;11.90;10.07;;;;;;;;;;5041454;28;20462;-60
2021/06/12 11:42:12;;;;;;;17.00;11.00;;;;;;;;;;5054034;28;20564;-56
2021/06/12 11:44:39;;;;;;;15.47;11.13;;;;;;;;;;5053855;28;20517;-60
2021/06/12 11:47:35;;;;;;;18.03;11.90;;;;;;;;;;5054121;28;20547;-57
2021/06/12 11:50:04;;;;;;;15.03;13.47;;;;;;;;;;5026317;28;20473;-58
2021/06/12 11:52:36;;;;;;;14.33;11.40;;;;;;;;;;5053772;28;20457;-61
2021/06/12 11:55:10;;;;;;;13.97;10.87;;;;;;;;;;5053514;28;20462;-53
2021/06/12 11:57:42;;;;;;;14.20;11.37;;;;;;;;;;5055119;28;20505;-57
2021/06/12 12:00:31;;;;;;;17.90;11.60;;;;;;;;;;5059689;28;20449;-57
2021/06/12 12:03:01;;;;;;;14.50;11.00;;;;;;;;;;5054053;28;20450;-57
2021/06/12 12:05:36;;;;;;;18.57;11.97;;;;;;;;;;5053840;28;20501;-60
2021/06/12 12:08:08;;;;;;;16.40;12.07;;;;;;;;;;5036663;28;20485;-59
2021/06/12 12:10:35;;;;;;;15.17;12.30;;;;;;;;;;5052798;28;20529;-56
2021/06/12 12:13:03;;;;;;;16.43;10.77;;;;;;;;;;5053379;28;20458;-61
2021/06/12 12:15:36;;;;;;;14.77;12.33;;;;;;;;;;5053093;28;20510;-61
2021/06/12 12:18:22;;;;;;;13.20;11.70;;;;;;;;;;5052505;28;20529;-56
2021/06/12 12:20:56;;;;;;;12.67;11.07;;;;;;;;;;5049389;28;20481;-61
2021/06/12 12:23:38;;;;;;;14.97;11.67;;;;;;;;;;5052093;28;20453;-62
2021/06/12 12:26:07;;;;;;;14.83;12.67;;;;;;;;;;5052731;28;20931;-57
2021/06/12 12:28:33;;;;;;;15.13;12.13;;;;;;;;;;5053491;28;20497;-61
2021/06/12 12:31:19;;;;;;;16.87;11.07;;;;;;;;;;5048098;28;20528;-61
2021/06/12 12:33:46;;;;;;;18.23;12.60;;;;;;;;;;5046378;28;20742;-59
2021/06/12 12:36:15;;;;;;;20.87;12.03;;;;;;;;;;5052600;28;20521;-57
2021/06/12 12:38:43;;;;;;;16.13;11.80;;;;;;;;;;5051282;28;20466;-59
2021/06/12 12:41:11;;;;;;;16.73;11.37;;;;;;;;;;5051773;28;20601;-59
2021/06/12 12:43:49;;;;;;;17.03;12.87;;;;;;;;;;5051140;28;20517;-58
2021/06/12 12:46:38;;;;;;;13.03;11.43;;;;;;;;;;5061180;28;20475;-62
2021/06/12 12:49:05;;;;;;;15.17;10.63;;;;;;;;;;5059759;28;20485;-57
2021/06/12 12:51:35;;;;;;;14.80;11.60;;;;;;;;;;5052041;28;20458;-61
2021/06/12 12:54:17;;;;;;;15.90;12.60;;;;;;;;;;5052986;28;20471;-62
2021/06/12 12:56:45;;;;;;;20.30;12.90;;;;;;;;;;5051092;28;20478;-59
2021/06/12 12:59:25;;;;;;;13.80;12.30;;;;;;;;;;5050786;28;20466;-61
2021/06/12 13:01:52;;;;;;;14.47;11.37;;;;;;;;;;5053177;28;20492;-57
2021/06/12 13:04:29;;;;;;;14.17;11.80;;;;;;;;;;5047662;28;20486;-59
2021/06/12 13:07:09;;;;;;;15.80;11.97;;;;;;;;;;5050515;28;20577;-56
2021/06/12 13:09:37;;;;;;;18.80;13.27;;;;;;;;;;5050678;28;20465;-57
2021/06/12 13:12:06;;;;;;;17.13;13.57;;;;;;;;;;5037690;28;20449;-59
2021/06/12 13:14:36;;;;;;;16.33;13.20;;;;;;;;;;5049946;28;20494;-58
2021/06/12 13:17:29;;;;;;;19.80;14.13;;;;;;;;;;5056186;28;20484;-57
2021/06/12 13:20:13;;;;;;;20.10;14.37;;;;;;;;;;5053620;28;20485;-59
2021/06/12 13:22:43;;;;;;;17.33;12.50;;;;;;;;;;5039723;28;20449;-54
2021/06/12 13:25:16;;;;;;;18.47;14.10;;;;;;;;;;5054321;28;20463;-60
2021/06/12 13:27:47;;;;;;;20.00;12.37;;;;;;;;;;5030434;28;20446;-62
2021/06/12 13:30:33;;;;;;;20.10;11.17;;;;;;;;;;5050788;28;20430;-58
2021/06/12 13:33:09;;;;;;;18.27;10.40;;;;;;;;;;5049839;28;20463;-55
2021/06/12 13:35:41;;;;;;;16.90;8.93;;;;;;;;;;5053944;28;20450;-60
2021/06/12 13:38:10;;;;;;;18.97;10.63;;;;;;;;;;5053477;28;20537;-62
2021/06/12 13:40:41;;;;;;;11.33;7.80;;;;;;;;;;5053281;28;20454;-62
2021/06/12 13:43:18;;;;;;;11.97;7.23;;;;;;;;;;5053611;28;20512;-57
2021/06/12 13:45:46;;;;;;;9.47;6.70;;;;;;;;;;5053045;28;20454;-63
2021/06/12 13:48:35;;;;;;;10.37;6.17;;;;;;;;;;5052263;28;20426;-54
2021/06/12 13:51:06;;;;;;;8.60;6.10;;;;;;;;;;5053667;28;20456;-59
2021/06/12 13:53:39;;;;;;;9.77;6.07;;;;;;;;;;5052687;28;20505;-61
2021/06/12 13:56:20;;;;;;;8.23;5.50;;;;;;;;;;5053935;28;20530;-61
2021/06/12 13:58:48;;;;;;;9.77;5.60;;;;;;;;;;5053058;28;20457;-59
2021/06/12 14:01:27;;;;;;;7.03;5.00;;;;;;;;;;5053294;28;20453;-59
2021/06/12 14:04:15;;;;;;;8.50;5.87;;;;;;;;;;5056850;28;20461;-60
2021/06/12 14:06:42;;;;;;;9.50;5.73;;;;;;;;;;5055855;28;20486;-61
2021/06/12 14:09:12;;;;;;;10.10;4.67;;;;;;;;;;5057377;28;20457;-60
2021/06/12 14:11:44;;;;;;;7.53;4.00;;;;;;;;;;5057356;28;20461;-57
2021/06/12 14:14:12;;;;;;;7.60;4.40;;;;;;;;;;5052344;28;20481;-58
2021/06/12 14:16:45;;;;;;;6.47;3.53;;;;;;;;;;5048159;28;20550;-61
2021/06/12 14:19:13;;;;;;;9.43;3.87;;;;;;;;;;5054055;28;20458;-57
2021/06/12 14:21:40;;;;;;;9.27;4.53;;;;;;;;;;5055936;28;20446;-59
2021/06/12 14:24:11;;;;;;;15.33;4.30;;;;;;;;;;5040110;28;20537;-50
2021/06/12 14:26:48;;;;;;;7.50;3.97;;;;;;;;;;5056172;28;20576;-59
2021/06/12 14:29:39;;;;;;;12.13;4.10;;;;;;;;;;5056686;28;20468;-61
2021/06/12 14:32:07;;;;;;;10.40;3.70;;;;;;;;;;5055990;28;20599;-58
2021/06/12 14:34:39;;;;;;;9.03;4.20;;;;;;;;;;5054723;28;20469;-58
2021/06/12 14:37:08;;;;;;;6.67;3.37;;;;;;;;;;5056300;28;20502;-60
2021/06/12 14:39:41;;;;;;;9.20;5.50;;;;;;;;;;5055008;28;20454;-58
2021/06/12 14:42:13;;;;;;;10.43;3.60;;;;;;;;;;5055049;28;20462;-53
2021/06/12 14:44:40;;;;;;;7.57;4.60;;;;;;;;;;5054692;28;20967;-62
2021/06/12 14:47:07;;;;;;;10.17;6.20;;;;;;;;;;5055305;28;20452;-64
2021/06/12 14:49:34;;;;;;;5.60;3.33;;;;;;;;;;5038131;28;20507;-58
2021/06/12 14:52:15;;;;;;;7.13;3.60;;;;;;;;;;5055801;28;20434;-55
2021/06/12 14:54:42;;;;;;;9.83;4.20;;;;;;;;;;5056079;28;20438;-58
2021/06/12 14:57:28;;;;;;;8.73;5.20;;;;;;;;;;5055083;28;20520;-57
2021/06/12 15:00:01;;;;;;;9.50;5.00;;;;;;;;;;5036163;28;20478;-58
2021/06/12 15:02:28;;;;;;;12.67;4.63;;;;;;;;;;5035929;28;20477;-53
2021/06/12 15:04:55;;;;;;;8.90;5.00;;;;;;;;;;5055202;28;20457;-54
2021/06/12 15:07:39;;;;;;;7.17;4.70;;;;;;;;;;5055061;28;20496;-57
2021/06/12 15:10:29;;;;;;;10.43;5.13;;;;;;;;;;5053668;28;20457;-56
2021/06/12 15:13:10;;;;;;;8.73;3.83;;;;;;;;;;5052825;28;20469;-57
2021/06/12 15:15:38;;;;;;;11.67;3.20;;;;;;;;;;5054094;28;20918;-59
2021/06/12 15:18:08;;;;;;;7.53;4.10;;;;;;;;;;5043613;28;20575;-52
2021/06/12 15:20:47;;;;;;;8.57;4.03;;;;;;;;;;5059923;28;20461;-59
2021/06/12 15:23:14;;;;;;;11.83;4.30;;;;;;;;;;5046026;28;20465;-60
2021/06/12 15:25:51;;;;;;;7.03;3.93;;;;;;;;;;5055648;28;20462;-59